createdAt,value
2019-03-27T00:00:13.833Z,17.7
2019-03-27T00:01:16.319Z,17.7
2019-03-27T00:02:18.799Z,17.6
2019-03-27T00:03:21.003Z,17.6
2019-03-27T00:04:23.467Z,17.7
2019-03-27T00:05:25.664Z,17.7
2019-03-27T00:06:27.872Z,17.6
2019-03-27T00:07:30.344Z,17.7
2019-03-27T00:08:32.525Z,17.7
2019-03-27T00:09:34.727Z,17.6
2019-03-27T00:10:36.928Z,17.7
2019-03-27T00:11:39.392Z,17.7
2019-03-27T00:12:41.892Z,17.7
2019-03-27T00:13:44.108Z,17.7
2019-03-27T00:14:46.596Z,17.7
2019-03-27T00:15:49.082Z,17.7
2019-03-27T00:16:51.558Z,17.7
2019-03-27T00:17:54.072Z,17.8
2019-03-27T00:18:56.600Z,17.7
2019-03-27T00:19:59.077Z,17.8
2019-03-27T00:21:01.444Z,17.7
2019-03-27T00:22:03.630Z,17.7
2019-03-27T00:23:06.095Z,17.8
2019-03-27T00:24:08.299Z,17.8
2019-03-27T00:25:10.807Z,17.8
2019-03-27T00:26:12.742Z,17.7
2019-03-27T00:27:15.224Z,17.8
2019-03-27T00:28:17.694Z,17.7
2019-03-27T00:29:20.174Z,17.8
2019-03-27T00:30:22.370Z,17.7
2019-03-27T00:31:24.648Z,17.8
2019-03-27T00:32:27.129Z,17.8
2019-03-27T00:33:29.645Z,17.8
2019-03-27T00:34:32.113Z,17.8
2019-03-27T00:35:34.333Z,17.8
2019-03-27T00:36:36.547Z,17.8
2019-03-27T00:37:39.030Z,17.7
2019-03-27T00:38:41.502Z,17.8
2019-03-27T00:39:43.974Z,17.8
2019-03-27T00:40:46.482Z,17.8
2019-03-27T00:41:48.662Z,17.7
2019-03-27T00:42:50.839Z,17.8
2019-03-27T00:43:53.038Z,17.8
2019-03-27T00:44:55.504Z,17.8
2019-03-27T00:45:58.032Z,17.8
2019-03-27T00:47:00.500Z,17.8
2019-03-27T00:48:02.696Z,17.8
2019-03-27T00:49:04.871Z,17.8
2019-03-27T00:50:07.347Z,17.8
2019-03-27T00:51:09.812Z,17.9
2019-03-27T00:52:12.317Z,17.9
2019-03-27T00:53:14.484Z,17.9
2019-03-27T00:54:16.951Z,17.8
2019-03-27T00:55:19.444Z,18
2019-03-27T00:56:21.921Z,18
2019-03-27T00:57:24.387Z,18
2019-03-27T00:58:26.871Z,17.9
2019-03-27T00:59:29.340Z,18
2019-03-27T01:00:31.805Z,17.9
2019-03-27T01:01:34.271Z,17.9
2019-03-27T01:02:36.762Z,17.9
2019-03-27T01:03:39.228Z,17.9
2019-03-27T01:04:41.451Z,17.9
2019-03-27T01:05:43.917Z,18
2019-03-27T01:06:46.393Z,18
2019-03-27T01:07:53.334Z,18
2019-03-27T01:08:55.533Z,17.9
2019-03-27T01:09:57.723Z,18
2019-03-27T01:10:59.927Z,17.9
2019-03-27T01:12:02.408Z,17.9
2019-03-27T01:13:04.600Z,18
2019-03-27T01:14:07.068Z,18.1
2019-03-27T01:15:09.341Z,17.9
2019-03-27T01:16:11.843Z,18
2019-03-27T01:17:14.321Z,18.1
2019-03-27T01:18:16.831Z,18
2019-03-27T01:19:19.301Z,18
2019-03-27T01:20:21.786Z,18
2019-03-27T01:21:24.281Z,18.1
2019-03-27T01:22:26.771Z,18
2019-03-27T01:23:29.237Z,18.1
2019-03-27T01:24:31.443Z,18
2019-03-27T01:25:33.659Z,18.2
2019-03-27T01:26:36.124Z,18.1
2019-03-27T01:27:38.324Z,18.1
2019-03-27T01:28:40.541Z,18.1
2019-03-27T01:29:42.781Z,18.1
2019-03-27T01:30:44.999Z,18.1
2019-03-27T01:31:47.485Z,18.1
2019-03-27T01:32:49.971Z,18.1
2019-03-27T01:33:52.438Z,18.1
2019-03-27T01:34:54.651Z,18.2
2019-03-27T01:35:56.840Z,18.1
2019-03-27T01:36:59.313Z,18.1
2019-03-27T01:38:01.784Z,18.1
2019-03-27T01:39:04.252Z,18.1
2019-03-27T01:40:06.754Z,18.2
2019-03-27T01:41:08.951Z,18.1
2019-03-27T01:42:11.431Z,18
2019-03-27T01:43:13.901Z,18.1
2019-03-27T01:44:16.102Z,18.1
2019-03-27T01:45:18.577Z,18.1
2019-03-27T01:46:20.764Z,18.2
2019-03-27T01:47:23.233Z,18.2
2019-03-27T01:48:25.405Z,18.1
2019-03-27T01:49:27.896Z,18.2
2019-03-27T01:50:30.100Z,18.2
2019-03-27T01:51:32.568Z,18.2
2019-03-27T01:52:34.773Z,18.2
2019-03-27T01:53:37.245Z,18.2
2019-03-27T01:54:39.153Z,18.1
2019-03-27T01:55:41.621Z,18.2
2019-03-27T01:56:44.099Z,18.3
2019-03-27T01:57:46.303Z,18.2
2019-03-27T01:58:48.501Z,18.2
2019-03-27T01:59:50.165Z,18.2
2019-03-27T02:00:52.631Z,18.2
2019-03-27T02:01:55.119Z,18.2
2019-03-27T02:02:57.312Z,18.1
2019-03-27T02:03:59.523Z,18.1
2019-03-27T02:05:01.491Z,18.2
2019-03-27T02:06:03.963Z,18.2
2019-03-27T02:07:06.491Z,18.2
2019-03-27T02:08:08.969Z,18.1
2019-03-27T02:09:11.182Z,18.2
2019-03-27T02:10:13.363Z,18.2
2019-03-27T02:11:15.847Z,18.1
2019-03-27T02:12:18.323Z,18.3
2019-03-27T02:13:20.794Z,18.2
2019-03-27T02:14:23.001Z,18.2
2019-03-27T02:15:25.183Z,18.2
2019-03-27T02:16:27.647Z,18.1
2019-03-27T02:17:29.853Z,18.2
2019-03-27T02:18:32.051Z,18.2
2019-03-27T02:19:34.317Z,18.2
2019-03-27T02:20:36.775Z,18.3
2019-03-27T02:21:39.255Z,18.2
2019-03-27T02:22:41.435Z,18.2
2019-03-27T02:23:43.699Z,18.2
2019-03-27T02:24:46.255Z,18.3
2019-03-27T02:25:48.749Z,18.2
2019-03-27T02:26:50.969Z,18.3
2019-03-27T02:27:53.440Z,18.2
2019-03-27T02:28:55.633Z,18.2
2019-03-27T02:29:58.103Z,18.2
2019-03-27T02:31:00.316Z,18.3
2019-03-27T02:32:02.541Z,18.3
2019-03-27T02:33:05.045Z,18.3
2019-03-27T02:34:07.616Z,18.2
2019-03-27T02:35:09.591Z,18.2
2019-03-27T02:36:11.534Z,18.3
2019-03-27T02:37:14.021Z,18.3
2019-03-27T02:38:16.317Z,18.2
2019-03-27T02:39:18.567Z,18.3
2019-03-27T02:40:21.021Z,18.2
2019-03-27T02:41:23.502Z,18.4
2019-03-27T02:42:25.983Z,18.3
2019-03-27T02:43:28.462Z,18.3
2019-03-27T02:44:30.953Z,18.2
2019-03-27T02:45:33.425Z,18.3
2019-03-27T02:46:35.894Z,18.2
2019-03-27T02:47:38.409Z,18.3
2019-03-27T02:48:40.869Z,18.4
2019-03-27T02:49:43.384Z,18.3
2019-03-27T02:50:45.600Z,18.3
2019-03-27T02:51:47.786Z,18.3
2019-03-27T02:52:50.136Z,18.3
2019-03-27T02:53:52.617Z,18.2
2019-03-27T02:54:55.110Z,18.3
2019-03-27T02:55:57.331Z,18.2
2019-03-27T02:56:59.834Z,18.4
2019-03-27T02:58:02.312Z,18.3
2019-03-27T02:59:04.803Z,18.2
2019-03-27T03:00:07.021Z,18.3
2019-03-27T03:01:09.227Z,18.4
2019-03-27T03:02:11.700Z,18.3
2019-03-27T03:03:14.174Z,18.2
2019-03-27T03:04:16.688Z,18.3
2019-03-27T03:05:19.163Z,18.3
2019-03-27T03:06:21.628Z,18.3
2019-03-27T03:07:23.796Z,18.3
2019-03-27T03:08:25.980Z,18.3
2019-03-27T03:09:28.209Z,18.2
2019-03-27T03:10:30.497Z,18.3
2019-03-27T03:11:32.695Z,18.3
2019-03-27T03:12:35.179Z,18.4
2019-03-27T03:13:37.416Z,18.2
2019-03-27T03:14:39.880Z,18.3
2019-03-27T03:15:42.344Z,18.2
2019-03-27T03:16:44.828Z,18.4
2019-03-27T03:17:47.023Z,18.3
2019-03-27T03:18:49.383Z,18.3
2019-03-27T03:19:51.578Z,18.3
2019-03-27T03:20:54.045Z,18.3
2019-03-27T03:21:56.512Z,18.3
2019-03-27T03:22:58.723Z,18.3
2019-03-27T03:24:00.929Z,18.3
2019-03-27T03:25:03.299Z,18.3
2019-03-27T03:26:05.523Z,18.3
2019-03-27T03:27:07.987Z,18.3
2019-03-27T03:28:10.462Z,18.3
2019-03-27T03:29:12.922Z,18.2
2019-03-27T03:30:15.148Z,18.3
2019-03-27T03:31:17.662Z,18.2
2019-03-27T03:32:20.215Z,18.3
2019-03-27T03:33:22.468Z,18.3
2019-03-27T03:34:24.991Z,18.3
2019-03-27T03:35:27.581Z,18.3
2019-03-27T03:36:29.783Z,18.2
2019-03-27T03:37:31.996Z,18.2
2019-03-27T03:38:34.464Z,18.3
2019-03-27T03:39:36.672Z,18.3
2019-03-27T03:40:39.163Z,18.2
2019-03-27T03:41:41.402Z,18.3
2019-03-27T03:42:43.898Z,18.2
2019-03-27T03:43:46.367Z,18.3
2019-03-27T03:44:48.828Z,18.2
2019-03-27T03:45:51.344Z,18.3
2019-03-27T03:47:58.812Z,18.3
2019-03-27T03:49:01.298Z,18.2
2019-03-27T03:50:03.763Z,18.2
2019-03-27T03:51:05.976Z,18.2
2019-03-27T03:52:08.193Z,18.3
2019-03-27T03:53:10.663Z,18.2
2019-03-27T03:54:13.294Z,18.3
2019-03-27T03:55:15.772Z,18.3
2019-03-27T03:56:18.248Z,18.4
2019-03-27T03:57:20.741Z,18.1
2019-03-27T03:58:23.223Z,18.3
2019-03-27T03:59:25.426Z,18.2
2019-03-27T04:00:27.910Z,18.3
2019-03-27T04:01:30.419Z,18.3
2019-03-27T04:02:32.908Z,18.3
2019-03-27T04:03:35.384Z,18.3
2019-03-27T04:04:38.076Z,18.3
2019-03-27T04:05:40.031Z,18.2
2019-03-27T04:06:42.518Z,18.2
2019-03-27T04:07:44.991Z,18.2
2019-03-27T04:08:47.495Z,18.3
2019-03-27T04:09:49.975Z,18.2
2019-03-27T04:10:52.444Z,18.3
2019-03-27T04:11:54.930Z,18.1
2019-03-27T04:12:57.410Z,18.1
2019-03-27T04:13:59.886Z,18.2
2019-03-27T04:15:02.197Z,18.1
2019-03-27T04:16:04.500Z,18.1
2019-03-27T04:18:12.019Z,18.2
2019-03-27T04:19:14.216Z,18.1
2019-03-27T04:20:16.707Z,18.1
2019-03-27T04:21:18.929Z,18.1
2019-03-27T04:22:21.426Z,18.1
2019-03-27T04:23:23.910Z,18
2019-03-27T04:24:26.403Z,18.1
2019-03-27T04:25:28.870Z,18
2019-03-27T04:26:35.816Z,18
2019-03-27T04:27:38.029Z,18
2019-03-27T04:28:40.503Z,18.1
2019-03-27T04:29:42.704Z,17.9
2019-03-27T04:30:45.184Z,18
2019-03-27T04:31:47.420Z,17.9
2019-03-27T04:32:49.628Z,18
2019-03-27T04:33:52.132Z,18
2019-03-27T04:34:54.923Z,18
2019-03-27T04:35:57.548Z,17.9
2019-03-27T04:37:00.067Z,18
2019-03-27T04:38:02.558Z,18
2019-03-27T04:39:04.819Z,17.9
2019-03-27T04:40:07.324Z,17.9
2019-03-27T04:41:09.789Z,17.9
2019-03-27T04:42:11.997Z,18
2019-03-27T04:43:13.941Z,17.9
2019-03-27T04:44:16.432Z,17.9
2019-03-27T04:45:18.904Z,17.9
2019-03-27T04:46:21.092Z,17.9
2019-03-27T04:48:28.400Z,17.9
2019-03-27T04:49:30.587Z,17.9
2019-03-27T04:50:33.077Z,17.9
2019-03-27T04:51:35.550Z,17.9
2019-03-27T04:52:38.035Z,17.9
2019-03-27T04:53:39.680Z,17.8
2019-03-27T04:54:42.172Z,17.8
2019-03-27T04:55:44.120Z,17.9
2019-03-27T04:56:46.323Z,17.9
2019-03-27T04:57:48.783Z,17.9
2019-03-27T04:58:51.263Z,17.9
2019-03-27T04:59:53.453Z,17.9
2019-03-27T05:00:55.649Z,17.9
2019-03-27T05:01:57.936Z,17.8
2019-03-27T05:03:00.423Z,17.8
2019-03-27T05:04:02.918Z,17.9
2019-03-27T05:05:04.875Z,17.8
2019-03-27T05:06:07.335Z,17.8
2019-03-27T05:07:09.813Z,17.9
2019-03-27T05:08:15.780Z,17.8
2019-03-27T05:09:18.258Z,17.9
2019-03-27T05:10:20.767Z,17.9
2019-03-27T05:11:23.234Z,17.8
2019-03-27T05:12:25.413Z,17.8
2019-03-27T05:13:27.622Z,17.8
2019-03-27T05:14:29.271Z,17.8
2019-03-27T05:15:31.768Z,17.8
2019-03-27T05:16:33.953Z,17.8
2019-03-27T05:18:41.440Z,17.8
2019-03-27T05:19:43.903Z,17.8
2019-03-27T05:20:46.397Z,17.8
2019-03-27T05:21:48.864Z,17.8
2019-03-27T05:22:51.333Z,17.8
2019-03-27T05:23:53.234Z,17.7
2019-03-27T05:24:55.761Z,17.8
2019-03-27T05:25:58.239Z,17.8
2019-03-27T05:27:00.707Z,17.8
2019-03-27T05:28:02.918Z,17.7
2019-03-27T05:29:04.566Z,17.8
2019-03-27T05:30:07.051Z,17.8
2019-03-27T05:31:09.523Z,17.7
2019-03-27T05:32:12.003Z,17.8
2019-03-27T05:33:14.469Z,17.8
2019-03-27T05:34:16.982Z,17.8
2019-03-27T05:35:19.442Z,17.8
2019-03-27T05:36:21.901Z,17.8
2019-03-27T05:37:24.395Z,17.8
2019-03-27T05:38:26.860Z,17.7
2019-03-27T05:39:29.031Z,17.7
2019-03-27T05:40:31.009Z,17.8
2019-03-27T05:41:33.503Z,17.8
2019-03-27T05:42:35.969Z,17.7
2019-03-27T05:43:38.442Z,17.8
2019-03-27T05:44:40.923Z,17.7
2019-03-27T05:45:43.401Z,17.8
2019-03-27T05:46:45.881Z,17.8
2019-03-27T05:48:53.335Z,17.8
2019-03-27T05:49:55.531Z,17.7
2019-03-27T05:50:58.013Z,17.8
2019-03-27T05:52:00.491Z,17.8
2019-03-27T05:53:02.980Z,17.7
2019-03-27T05:54:05.459Z,17.8
2019-03-27T05:55:07.644Z,17.7
2019-03-27T05:56:10.113Z,17.7
2019-03-27T05:57:12.281Z,17.7
2019-03-27T05:58:14.479Z,17.8
2019-03-27T05:59:16.964Z,17.8
2019-03-27T06:00:19.430Z,17.8
2019-03-27T06:01:21.926Z,17.8
2019-03-27T06:02:24.181Z,17.8
2019-03-27T06:03:26.665Z,17.8
2019-03-27T06:04:28.850Z,17.8
2019-03-27T06:05:31.324Z,17.8
2019-03-27T06:06:33.894Z,17.8
2019-03-27T06:07:36.101Z,17.8
2019-03-27T06:08:38.294Z,17.8
2019-03-27T06:09:40.225Z,17.7
2019-03-27T06:10:42.507Z,17.7
2019-03-27T06:11:44.673Z,17.7
2019-03-27T06:12:46.884Z,17.8
2019-03-27T06:13:49.397Z,17.7
2019-03-27T06:14:51.884Z,17.7
2019-03-27T06:15:54.357Z,17.7
2019-03-27T06:16:56.620Z,17.8
2019-03-27T06:19:04.091Z,17.7
2019-03-27T06:20:06.275Z,17.8
2019-03-27T06:21:08.757Z,17.7
2019-03-27T06:22:10.957Z,17.8
2019-03-27T06:23:17.213Z,17.7
2019-03-27T06:24:19.693Z,17.6
2019-03-27T06:25:21.871Z,17.8
2019-03-27T06:26:24.341Z,17.7
2019-03-27T06:27:26.816Z,17.7
2019-03-27T06:28:29.015Z,17.8
2019-03-27T06:29:31.248Z,17.7
2019-03-27T06:30:33.717Z,17.7
2019-03-27T06:31:36.229Z,17.7
2019-03-27T06:32:38.703Z,17.7
2019-03-27T06:33:41.176Z,17.7
2019-03-27T06:34:43.712Z,17.8
2019-03-27T06:35:46.186Z,17.7
2019-03-27T06:36:48.363Z,17.7
2019-03-27T06:37:50.859Z,17.7
2019-03-27T06:38:53.098Z,17.7
2019-03-27T06:39:55.327Z,17.7
2019-03-27T06:40:57.791Z,17.7
2019-03-27T06:42:00.003Z,17.7
2019-03-27T06:43:02.506Z,17.7
2019-03-27T06:44:04.982Z,17.7
2019-03-27T06:45:07.456Z,17.7
2019-03-27T06:46:09.947Z,17.7
2019-03-27T06:47:12.156Z,17.7
2019-03-27T06:49:18.812Z,17.7
2019-03-27T06:50:21.281Z,17.7
2019-03-27T06:51:39.158Z,17.8
2019-03-27T06:52:31.237Z,17.7
2019-03-27T06:53:33.700Z,17.7
2019-03-27T06:54:35.600Z,17.8
2019-03-27T06:55:37.799Z,17.7
2019-03-27T06:56:40.279Z,17.7
2019-03-27T06:57:42.751Z,17.7
2019-03-27T06:59:49.937Z,17.7
2019-03-27T07:00:52.151Z,17.7
2019-03-27T07:01:54.638Z,17.7
2019-03-27T07:02:57.127Z,17.6
2019-03-27T07:05:04.296Z,17.7
2019-03-27T07:06:06.771Z,17.6
2019-03-27T07:07:09.263Z,17.6
2019-03-27T07:08:11.824Z,17.7
2019-03-27T07:09:14.304Z,17.7
2019-03-27T07:10:16.819Z,17.7
2019-03-27T07:11:18.762Z,17.7
2019-03-27T07:12:22.160Z,17.6
2019-03-27T07:13:24.627Z,17.6
2019-03-27T07:14:27.125Z,17.7
2019-03-27T07:15:29.597Z,17.7
2019-03-27T07:16:32.077Z,17.6
2019-03-27T07:17:34.289Z,17.7
2019-03-27T07:19:41.753Z,17.6
2019-03-27T07:20:43.950Z,17.6
2019-03-27T07:21:46.437Z,17.7
2019-03-27T07:22:48.909Z,17.7
2019-03-27T07:23:51.402Z,17.7
2019-03-27T07:24:53.873Z,17.6
2019-03-27T07:25:56.341Z,17.7
2019-03-27T07:26:58.525Z,17.6
2019-03-27T07:28:00.463Z,17.7
2019-03-27T07:29:02.957Z,17.7
2019-03-27T07:30:04.847Z,17.7
2019-03-27T07:31:07.051Z,17.7
2019-03-27T07:32:09.235Z,17.7
2019-03-27T07:33:11.724Z,17.7
2019-03-27T07:34:14.210Z,17.7
2019-03-27T07:35:16.691Z,17.7
2019-03-27T07:36:19.176Z,17.7
2019-03-27T07:37:21.647Z,17.6
2019-03-27T07:38:24.119Z,17.6
2019-03-27T07:39:26.597Z,17.6
2019-03-27T07:40:29.071Z,17.6
2019-03-27T07:41:30.988Z,17.6
2019-03-27T07:42:33.463Z,17.7
2019-03-27T07:43:35.936Z,17.6
2019-03-27T07:44:38.415Z,17.7
2019-03-27T07:45:40.624Z,17.6
2019-03-27T07:46:43.093Z,17.6
2019-03-27T07:49:55.357Z,17.6
2019-03-27T07:50:57.816Z,17.7
2019-03-27T07:52:00.017Z,17.6
2019-03-27T07:53:01.970Z,17.7
2019-03-27T07:54:04.485Z,17.6
2019-03-27T07:56:11.941Z,17.7
2019-03-27T07:57:14.147Z,17.6
2019-03-27T07:58:16.074Z,17.6
2019-03-27T07:59:18.003Z,17.6
2019-03-27T08:00:20.469Z,17.6
2019-03-27T08:01:22.661Z,17.6
2019-03-27T08:02:25.148Z,17.6
2019-03-27T08:03:27.701Z,17.7
2019-03-27T08:04:30.267Z,17.7
2019-03-27T08:05:32.835Z,17.6
2019-03-27T08:06:34.775Z,17.6
2019-03-27T08:07:36.961Z,17.6
2019-03-27T08:08:39.175Z,17.7
2019-03-27T08:09:41.157Z,17.7
2019-03-27T08:10:43.129Z,17.6
2019-03-27T08:11:45.326Z,17.6
2019-03-27T08:12:47.810Z,17.6
2019-03-27T08:13:50.018Z,17.6
2019-03-27T08:14:52.495Z,17.6
2019-03-27T08:15:54.761Z,17.7
2019-03-27T08:16:56.977Z,17.6
2019-03-27T08:17:58.624Z,17.6
2019-03-27T08:20:06.094Z,17.6
2019-03-27T08:21:08.571Z,17.6
2019-03-27T08:22:10.765Z,17.6
2019-03-27T08:23:13.237Z,17.6
2019-03-27T08:24:15.704Z,17.6
2019-03-27T08:25:17.898Z,17.7
2019-03-27T08:26:20.368Z,17.6
2019-03-27T08:27:22.820Z,17.7
2019-03-27T08:28:25.342Z,17.6
2019-03-27T08:29:27.799Z,17.6
2019-03-27T08:30:29.784Z,17.6
2019-03-27T08:31:32.006Z,17.5
2019-03-27T08:33:39.472Z,17.6
2019-03-27T08:34:41.948Z,17.6
2019-03-27T08:35:44.435Z,17.7
2019-03-27T08:36:47.203Z,17.5
2019-03-27T08:37:49.414Z,17.6
2019-03-27T08:38:51.955Z,17.6
2019-03-27T08:39:54.449Z,17.6
2019-03-27T08:40:56.922Z,17.6
2019-03-27T08:41:59.386Z,17.6
2019-03-27T08:43:01.602Z,17.6
2019-03-27T08:44:04.076Z,17.5
2019-03-27T08:45:06.663Z,17.6
2019-03-27T08:46:09.153Z,17.7
2019-03-27T08:47:11.618Z,17.6
2019-03-27T08:48:14.095Z,17.5
2019-03-27T08:50:21.561Z,17.7
2019-03-27T08:51:24.034Z,17.6
2019-03-27T08:52:26.257Z,17.7
2019-03-27T08:53:28.741Z,17.6
2019-03-27T08:54:31.257Z,17.7
2019-03-27T08:55:33.727Z,17.6
2019-03-27T08:56:35.929Z,17.6
2019-03-27T08:57:38.413Z,17.6
2019-03-27T08:58:40.596Z,17.7
2019-03-27T08:59:43.100Z,17.6
2019-03-27T09:00:45.700Z,17.6
2019-03-27T09:01:48.213Z,17.7
2019-03-27T09:02:50.691Z,17.6
2019-03-27T09:03:53.174Z,17.6
2019-03-27T09:04:55.654Z,17.6
2019-03-27T09:05:57.560Z,17.6
2019-03-27T09:07:00.086Z,17.6
2019-03-27T09:08:02.557Z,17.7
2019-03-27T09:09:05.022Z,17.6
2019-03-27T09:10:07.501Z,17.7
2019-03-27T09:11:09.410Z,17.6
2019-03-27T09:12:11.895Z,17.6
2019-03-27T09:13:13.810Z,17.6
2019-03-27T09:14:16.295Z,17.6
2019-03-27T09:15:18.459Z,17.6
2019-03-27T09:16:20.915Z,17.7
2019-03-27T09:17:23.402Z,17.7
2019-03-27T09:18:25.578Z,17.7
2019-03-27T09:20:32.767Z,17.6
2019-03-27T09:21:35.259Z,17.6
2019-03-27T09:22:37.732Z,17.5
2019-03-27T09:23:40.198Z,17.6
2019-03-27T09:24:42.676Z,17.7
2019-03-27T09:25:45.153Z,17.6
2019-03-27T09:26:47.627Z,17.6
2019-03-27T09:27:49.850Z,17.7
2019-03-27T09:28:52.360Z,17.5
2019-03-27T09:29:54.836Z,17.6
2019-03-27T09:30:57.339Z,17.7
2019-03-27T09:31:59.834Z,17.6
2019-03-27T09:33:01.782Z,17.8
2019-03-27T09:34:04.276Z,17.6
2019-03-27T09:35:06.476Z,17.6
2019-03-27T09:36:08.865Z,17.6
2019-03-27T09:37:12.157Z,17.6
2019-03-27T09:38:14.636Z,17.6
2019-03-27T09:39:17.103Z,17.5
2019-03-27T09:40:19.566Z,17.6
2019-03-27T09:41:21.922Z,17.6
2019-03-27T09:42:24.133Z,17.6
2019-03-27T09:43:26.640Z,17.6
2019-03-27T09:44:29.100Z,17.7
2019-03-27T09:45:31.601Z,17.7
2019-03-27T09:46:33.814Z,17.6
2019-03-27T09:47:36.285Z,17.6
2019-03-27T09:48:38.495Z,17.6
2019-03-27T09:50:45.965Z,17.7
2019-03-27T09:51:48.216Z,17.7
2019-03-27T09:52:50.393Z,17.6
2019-03-27T09:53:53.906Z,17.6
2019-03-27T09:54:56.099Z,17.7
2019-03-27T09:55:58.595Z,17.6
2019-03-27T09:57:01.050Z,17.7
2019-03-27T09:58:03.246Z,17.7
2019-03-27T09:59:06.654Z,17.6
2019-03-27T10:00:09.125Z,17.6
2019-03-27T10:01:11.613Z,17.6
2019-03-27T10:02:13.551Z,17.7
2019-03-27T10:03:16.094Z,17.7
2019-03-27T10:04:18.314Z,17.6
2019-03-27T10:05:20.794Z,17.6
2019-03-27T10:06:23.018Z,17.6
2019-03-27T10:07:25.492Z,17.7
2019-03-27T10:08:27.974Z,17.6
2019-03-27T10:09:29.874Z,17.5
2019-03-27T10:10:32.349Z,17.5
2019-03-27T10:11:34.531Z,17.7
2019-03-27T10:12:37.000Z,17.6
2019-03-27T10:13:39.209Z,17.6
2019-03-27T10:14:41.728Z,17.5
2019-03-27T10:15:43.976Z,17.6
2019-03-27T10:16:46.467Z,17.6
2019-03-27T10:17:48.943Z,17.5
2019-03-27T10:18:51.160Z,17.6
2019-03-27T10:20:58.365Z,17.6
2019-03-27T10:22:00.297Z,17.6
2019-03-27T10:23:02.217Z,17.6
2019-03-27T10:24:04.691Z,17.5
2019-03-27T10:25:07.160Z,17.5
2019-03-27T10:26:09.352Z,17.7
2019-03-27T10:27:11.569Z,17.6
2019-03-27T10:28:13.762Z,17.6
2019-03-27T10:29:15.951Z,17.7
2019-03-27T10:30:18.507Z,17.7
2019-03-27T10:31:20.982Z,17.6
2019-03-27T10:32:23.452Z,17.6
2019-03-27T10:33:25.930Z,17.7
2019-03-27T10:34:28.127Z,17.6
2019-03-27T10:35:30.343Z,17.7
2019-03-27T10:36:32.556Z,17.6
2019-03-27T10:37:35.028Z,17.6
2019-03-27T10:38:37.254Z,17.6
2019-03-27T10:39:43.705Z,17.6
2019-03-27T10:40:45.870Z,17.6
2019-03-27T10:41:48.352Z,17.6
2019-03-27T10:42:50.852Z,17.6
2019-03-27T10:43:53.049Z,17.6
2019-03-27T10:44:55.544Z,17.5
2019-03-27T10:45:57.465Z,17.5
2019-03-27T10:46:59.664Z,17.6
2019-03-27T10:48:02.146Z,17.6
2019-03-27T10:49:04.614Z,17.6
2019-03-27T10:51:12.067Z,17.6
2019-03-27T10:52:14.273Z,17.6
2019-03-27T10:53:16.543Z,17.6
2019-03-27T10:54:19.019Z,17.5
2019-03-27T10:55:21.500Z,17.6
2019-03-27T10:56:23.977Z,17.6
2019-03-27T10:57:26.142Z,17.7
2019-03-27T10:58:28.909Z,17.6
2019-03-27T10:59:31.450Z,17.6
2019-03-27T11:00:33.674Z,17.5
2019-03-27T11:01:35.896Z,17.7
2019-03-27T11:02:38.367Z,17.6
2019-03-27T11:03:40.273Z,17.6
2019-03-27T11:04:42.472Z,17.7
2019-03-27T11:05:44.381Z,17.6
2019-03-27T11:06:46.848Z,17.7
2019-03-27T11:07:49.316Z,17.5
2019-03-27T11:08:51.876Z,17.6
2019-03-27T11:09:54.413Z,17.6
2019-03-27T11:10:56.900Z,17.7
2019-03-27T11:11:59.395Z,17.6
2019-03-27T11:13:01.869Z,17.6
2019-03-27T11:14:04.356Z,17.6
2019-03-27T11:15:06.300Z,17.5
2019-03-27T11:16:08.606Z,17.6
2019-03-27T11:17:10.807Z,17.6
2019-03-27T11:18:13.284Z,17.6
2019-03-27T11:19:15.760Z,17.6
2019-03-27T11:21:23.210Z,17.6
2019-03-27T11:22:25.475Z,17.6
2019-03-27T11:23:27.988Z,17.6
2019-03-27T11:24:30.473Z,17.6
2019-03-27T11:25:33.876Z,17.6
2019-03-27T11:26:36.377Z,17.5
2019-03-27T11:27:38.582Z,17.6
2019-03-27T11:28:41.049Z,17.6
2019-03-27T11:29:43.579Z,17.5
2019-03-27T11:31:50.766Z,17.5
2019-03-27T11:32:52.793Z,17.6
2019-03-27T11:33:54.734Z,17.5
2019-03-27T11:34:57.212Z,17.6
2019-03-27T11:35:59.434Z,17.6
2019-03-27T11:37:01.902Z,17.6
2019-03-27T11:38:04.380Z,17.6
2019-03-27T11:39:06.850Z,17.6
2019-03-27T11:40:09.071Z,17.5
2019-03-27T11:41:12.915Z,17.6
2019-03-27T11:42:15.394Z,17.6
2019-03-27T11:43:17.577Z,17.6
2019-03-27T11:44:19.246Z,17.6
2019-03-27T11:45:21.422Z,17.6
2019-03-27T11:46:23.610Z,17.6
2019-03-27T11:47:25.820Z,17.6
2019-03-27T11:48:27.783Z,17.6
2019-03-27T11:49:30.196Z,17.6
2019-03-27T11:51:37.466Z,17.5
2019-03-27T11:52:39.650Z,17.6
2019-03-27T11:53:42.127Z,17.5
2019-03-27T11:54:44.591Z,17.6
2019-03-27T11:55:46.533Z,17.6
2019-03-27T11:56:49.003Z,17.6
2019-03-27T11:57:51.274Z,17.5
2019-03-27T11:58:53.764Z,17.6
2019-03-27T11:59:56.225Z,17.7
2019-03-27T12:00:58.697Z,17.6
2019-03-27T12:02:01.166Z,17.6
2019-03-27T12:03:03.628Z,17.6
2019-03-27T12:04:05.608Z,17.5
2019-03-27T12:05:08.102Z,17.6
2019-03-27T12:06:10.563Z,17.6
2019-03-27T12:07:13.032Z,17.5
2019-03-27T12:08:15.209Z,17.6
2019-03-27T12:09:17.684Z,17.5
2019-03-27T12:10:20.159Z,17.6
2019-03-27T12:11:22.641Z,17.6
2019-03-27T12:12:24.822Z,17.5
2019-03-27T12:13:27.310Z,17.6
2019-03-27T12:14:29.791Z,17.6
2019-03-27T12:15:32.253Z,17.6
2019-03-27T12:16:34.459Z,17.5
2019-03-27T12:17:36.931Z,17.6
2019-03-27T12:18:39.408Z,17.7
2019-03-27T12:19:41.609Z,17.6
2019-03-27T12:20:57.676Z,17.6
2019-03-27T12:21:49.552Z,17.6
2019-03-27T12:23:56.713Z,17.6
2019-03-27T12:24:58.386Z,17.5
2019-03-27T12:26:00.596Z,17.6
2019-03-27T12:27:03.078Z,17.6
2019-03-27T12:28:05.611Z,17.5
2019-03-27T12:29:07.588Z,17.5
2019-03-27T12:30:09.810Z,17.5
2019-03-27T12:31:11.994Z,17.6
2019-03-27T12:32:14.201Z,17.6
2019-03-27T12:33:16.671Z,17.5
2019-03-27T12:34:18.893Z,17.6
2019-03-27T12:35:21.103Z,17.6
2019-03-27T12:36:23.288Z,17.6
2019-03-27T12:37:25.775Z,17.5
2019-03-27T12:38:28.241Z,17.6
2019-03-27T12:39:30.782Z,17.5
2019-03-27T12:40:32.982Z,17.6
2019-03-27T12:41:35.192Z,17.6
2019-03-27T12:42:37.392Z,17.6
2019-03-27T12:43:39.862Z,17.6
2019-03-27T12:44:42.360Z,17.5
2019-03-27T12:45:44.846Z,17.6
2019-03-27T12:46:47.321Z,17.5
2019-03-27T12:47:54.260Z,17.5
2019-03-27T12:48:56.450Z,17.6
2019-03-27T12:49:58.930Z,17.6
2019-03-27T12:52:06.341Z,17.5
2019-03-27T12:53:08.821Z,17.5
2019-03-27T12:54:11.369Z,17.6
2019-03-27T12:55:13.842Z,17.6
2019-03-27T12:56:16.322Z,17.6
2019-03-27T12:57:18.797Z,17.6
2019-03-27T12:58:21.260Z,17.5
2019-03-27T12:59:23.462Z,17.5
2019-03-27T13:00:25.952Z,17.6
2019-03-27T13:01:27.911Z,17.5
2019-03-27T13:02:30.414Z,17.5
2019-03-27T13:03:32.615Z,17.6
2019-03-27T13:04:35.111Z,17.7
2019-03-27T13:05:37.378Z,17.6
2019-03-27T13:06:39.917Z,17.6
2019-03-27T13:09:52.205Z,17.6
2019-03-27T13:10:54.428Z,17.6
2019-03-27T13:11:56.673Z,17.5
2019-03-27T13:12:58.872Z,17.5
2019-03-27T13:14:01.337Z,17.5
2019-03-27T13:15:03.249Z,17.5
2019-03-27T13:16:05.713Z,17.6
2019-03-27T13:17:08.183Z,17.5
2019-03-27T13:18:10.396Z,17.6
2019-03-27T13:19:12.919Z,17.5
2019-03-27T13:20:15.406Z,17.5
2019-03-27T13:22:22.590Z,17.5
2019-03-27T13:23:25.067Z,17.6
2019-03-27T13:24:27.574Z,17.6
2019-03-27T13:25:29.776Z,17.6
2019-03-27T13:26:32.250Z,17.6
2019-03-27T13:27:34.734Z,17.6
2019-03-27T13:29:42.223Z,17.5
2019-03-27T13:30:44.705Z,17.6
2019-03-27T13:31:47.185Z,17.4
2019-03-27T13:32:49.656Z,17.6
2019-03-27T13:33:52.127Z,17.5
2019-03-27T13:34:54.609Z,17.6
2019-03-27T13:35:57.090Z,17.5
2019-03-27T13:36:59.563Z,17.5
2019-03-27T13:38:01.770Z,17.6
2019-03-27T13:39:04.250Z,17.6
2019-03-27T13:40:06.720Z,17.5
2019-03-27T13:41:09.194Z,17.6
2019-03-27T13:42:11.387Z,17.5
2019-03-27T13:43:13.905Z,17.6
2019-03-27T13:44:16.384Z,17.5
2019-03-27T13:45:18.611Z,17.5
2019-03-27T13:46:21.089Z,17.5
2019-03-27T13:47:23.302Z,17.7
2019-03-27T13:48:25.774Z,17.6
2019-03-27T13:49:28.243Z,17.6
2019-03-27T13:50:30.514Z,17.5
2019-03-27T13:52:37.972Z,17.5
2019-03-27T13:53:39.876Z,17.6
2019-03-27T13:54:42.344Z,17.5
2019-03-27T13:55:44.815Z,17.6
2019-03-27T13:56:47.025Z,17.6
2019-03-27T13:57:48.661Z,17.6
2019-03-27T13:58:51.202Z,17.6
2019-03-27T13:59:53.683Z,17.6
2019-03-27T14:00:56.181Z,17.6
2019-03-27T14:01:58.660Z,17.6
2019-03-27T14:03:01.156Z,17.6
2019-03-27T14:04:03.316Z,17.5
2019-03-27T14:05:05.532Z,17.6
2019-03-27T14:06:08.002Z,17.6
2019-03-27T14:07:10.492Z,17.5
2019-03-27T14:08:12.701Z,17.5
2019-03-27T14:09:15.180Z,17.5
2019-03-27T14:10:17.653Z,17.6
2019-03-27T14:11:20.120Z,17.6
2019-03-27T14:12:22.307Z,17.5
2019-03-27T14:13:28.491Z,17.5
2019-03-27T14:14:30.662Z,17.6
2019-03-27T14:15:32.853Z,17.6
2019-03-27T14:16:35.063Z,17.5
2019-03-27T14:17:36.981Z,17.5
2019-03-27T14:18:38.895Z,17.5
2019-03-27T14:19:41.105Z,17.6
2019-03-27T14:20:43.597Z,17.6
2019-03-27T14:22:50.776Z,17.5
2019-03-27T14:23:53.285Z,17.5
2019-03-27T14:24:55.495Z,17.5
2019-03-27T14:25:57.667Z,17.6